Time;durP1;ratioP1;P1;durP2;ratioP2;P2;SDS_P1;SDS_P2;PMS_P1;PMS_P2;Temp;Humidity;BMP_temperature;BMP_pressure;BME280_temperature;BME280_humidity;BME280_pressure;Samples;Min_cycle;Max_cycle;Signal;HPM_P1;HPM_P2
2024/01/20 00:02:14;;;;;;;0.10;0.10;;;;;;;-4.10;100.00;100202.03;5039634;28;20703;-51
2024/01/20 00:05:01;;;;;;;0.10;0.10;;;;;;;-4.14;100.00;100199.41;5053071;28;20215;-52
2024/01/20 00:07:49;;;;;;;0.10;0.10;;;;;;;-4.53;100.00;100205.81;5053061;28;20360;-51
2024/01/20 00:10:36;;;;;;;0.10;0.10;;;;;;;-4.73;100.00;100202.97;5052321;28;20243;-51
2024/01/20 00:13:24;;;;;;;0.10;0.10;;;;;;;-4.67;100.00;100197.84;5021304;28;20197;-51
2024/01/20 00:16:11;;;;;;;0.10;0.10;;;;;;;-4.36;100.00;100193.09;5013072;28;20332;-52
2024/01/20 00:18:58;;;;;;;0.10;0.10;;;;;;;-3.94;100.00;100192.75;5012889;28;20221;-51
2024/01/20 00:21:45;;;;;;;0.10;0.10;;;;;;;-3.88;100.00;100195.38;5017457;28;20197;-51
2024/01/20 00:24:32;;;;;;;0.00;0.00;;;;;;;-3.89;100.00;100188.47;5052869;28;20208;-51
2024/01/20 00:27:19;;;;;;;0.10;0.10;;;;;;;-3.58;100.00;100186.19;5051411;28;20216;-52
2024/01/20 00:30:08;;;;;;;0.00;0.00;;;;;;;-3.44;100.00;100186.34;5052723;28;20738;-51
2024/01/20 00:32:55;;;;;;;0.10;0.10;;;;;;;-3.52;100.00;100194.88;5029303;28;20201;-52
2024/01/20 00:35:44;;;;;;;0.10;0.10;;;;;;;-3.06;100.00;100205.66;5013043;28;20198;-52
2024/01/20 00:38:33;;;;;;;0.10;0.10;;;;;;;-3.14;100.00;100207.31;5012747;28;20244;-51
2024/01/20 00:41:19;;;;;;;0.10;0.10;;;;;;;-3.30;100.00;100208.88;5011802;28;20685;-52
2024/01/20 00:44:08;;;;;;;0.00;0.00;;;;;;;-3.43;100.00;100209.66;5013017;28;20197;-52
2024/01/20 00:46:56;;;;;;;0.10;0.10;;;;;;;-3.56;100.00;100219.03;5012826;28;20249;-51
2024/01/20 00:49:43;;;;;;;0.10;0.10;;;;;;;-3.19;100.00;100232.28;5013009;28;20193;-52
2024/01/20 00:52:30;;;;;;;0.10;0.10;;;;;;;-3.34;100.00;100233.03;5020861;28;20201;-52
2024/01/20 00:55:18;;;;;;;0.10;0.10;;;;;;;-3.40;100.00;100235.56;5032601;28;20201;-52
2024/01/20 00:58:04;;;;;;;0.10;0.10;;;;;;;-3.23;100.00;100240.91;5032469;28;20267;-52
2024/01/20 01:00:51;;;;;;;0.10;0.10;;;;;;;-3.33;100.00;100231.31;5032538;28;20229;-51
2024/01/20 01:03:41;;;;;;;0.10;0.10;;;;;;;-2.99;100.00;100225.59;5049220;28;20235;-52
2024/01/20 01:06:28;;;;;;;0.10;0.10;;;;;;;-3.15;100.00;100228.03;5052495;28;20710;-51
2024/01/20 01:09:15;;;;;;;0.10;0.10;;;;;;;-3.22;100.00;100233.16;5052451;28;20204;-51
2024/01/20 01:12:02;;;;;;;0.10;0.10;;;;;;;-3.57;100.00;100240.59;5043190;28;20198;-52
2024/01/20 01:14:49;;;;;;;0.10;0.10;;;;;;;-3.72;100.00;100243.00;5016649;28;20212;-51
2024/01/20 01:17:36;;;;;;;0.10;0.10;;;;;;;-3.56;100.00;100246.63;5032286;28;20193;-52
2024/01/20 01:20:24;;;;;;;0.10;0.10;;;;;;;-3.55;100.00;100254.41;5032288;28;20644;-52
2024/01/20 01:23:10;;;;;;;0.10;0.10;;;;;;;-3.29;100.00;100259.84;5032309;28;20379;-52
2024/01/20 01:25:57;;;;;;;0.10;0.10;;;;;;;-3.36;100.00;100246.84;5030993;28;20779;-52
2024/01/20 01:28:44;;;;;;;0.10;0.10;;;;;;;-3.14;100.00;100260.84;5032132;28;20192;-51
2024/01/20 01:31:31;;;;;;;0.10;0.10;;;;;;;-2.92;100.00;100252.41;5042089;28;20204;-52
2024/01/20 01:34:18;;;;;;;0.00;0.00;;;;;;;-2.96;100.00;100261.00;5016274;28;20204;-52
2024/01/20 01:37:07;;;;;;;0.10;0.10;;;;;;;-2.83;100.00;100256.78;5015857;28;20248;-52
2024/01/20 01:39:53;;;;;;;0.10;0.10;;;;;;;-2.85;100.00;100258.50;5015707;28;20213;-51
2024/01/20 01:42:40;;;;;;;0.10;0.10;;;;;;;-2.88;100.00;100262.81;5023186;28;20197;-52
2024/01/20 01:45:27;;;;;;;0.00;0.00;;;;;;;-2.95;100.00;100262.75;5035505;28;20232;-51
2024/01/20 01:48:15;;;;;;;0.10;0.10;;;;;;;-2.97;100.00;100275.69;5035615;28;20323;-52
2024/01/20 01:51:04;;;;;;;0.10;0.10;;;;;;;-2.83;100.00;100270.63;5035585;28;20267;-52
2024/01/20 01:53:53;;;;;;;0.10;0.10;;;;;;;-2.49;100.00;100274.34;5053565;28;20195;-51
2024/01/20 01:56:42;;;;;;;0.10;0.10;;;;;;;-2.74;100.00;100270.69;5054070;28;20197;-52
2024/01/20 01:59:30;;;;;;;0.03;0.03;;;;;;;-2.64;100.00;100280.28;5055131;28;20777;-51
2024/01/20 02:02:17;;;;;;;0.10;0.10;;;;;;;-2.94;100.00;100274.84;5048889;28;20225;-52
2024/01/20 02:05:05;;;;;;;0.10;0.10;;;;;;;-2.85;100.00;100272.31;5034855;28;20205;-51
2024/01/20 02:07:54;;;;;;;0.10;0.10;;;;;;;-3.41;100.00;100277.84;5035234;28;20216;-52
2024/01/20 02:10:42;;;;;;;0.10;0.10;;;;;;;-3.50;100.00;100280.34;5033841;28;20193;-52
2024/01/20 02:13:29;;;;;;;0.10;0.10;;;;;;;-3.54;100.00;100281.19;5050007;28;20200;-51
2024/01/20 02:16:16;;;;;;;0.00;0.00;;;;;;;-3.39;100.00;100276.16;5055012;28;20200;-52
2024/01/20 02:19:03;;;;;;;0.10;0.10;;;;;;;-3.35;100.00;100277.94;5054919;28;20224;-52
2024/01/20 02:21:51;;;;;;;0.10;0.10;;;;;;;-3.00;100.00;100280.84;5053623;28;20216;-52
2024/01/20 02:24:40;;;;;;;0.10;0.10;;;;;;;-3.02;100.00;100285.13;5034976;28;20201;-51
2024/01/20 02:27:27;;;;;;;0.00;0.00;;;;;;;-3.14;100.00;100291.94;5018705;28;20248;-52
2024/01/20 02:30:14;;;;;;;0.10;0.10;;;;;;;-3.37;100.00;100295.19;5034828;28;20212;-51
2024/01/20 02:33:01;;;;;;;0.10;0.10;;;;;;;-3.39;100.00;100288.22;5045543;28;20192;-51
2024/01/20 02:35:48;;;;;;;0.00;0.00;;;;;;;-3.42;100.00;100285.63;5054695;28;20195;-51
2024/01/20 02:38:35;;;;;;;0.10;0.10;;;;;;;-3.25;100.00;100291.84;5054612;28;20195;-51
2024/01/20 02:41:23;;;;;;;0.03;0.03;;;;;;;-3.43;100.00;100295.09;5053284;28;20196;-52
2024/01/20 02:44:10;;;;;;;0.10;0.10;;;;;;;-3.40;100.00;100307.22;5014793;28;20201;-52
2024/01/20 02:46:57;;;;;;;0.10;0.10;;;;;;;-3.53;100.00;100306.22;5014830;28;20380;-52
2024/01/20 02:49:44;;;;;;;0.10;0.10;;;;;;;-3.31;100.00;100312.50;5014844;28;20212;-51
2024/01/20 02:52:32;;;;;;;0.10;0.10;;;;;;;-3.66;100.00;100318.16;5027136;28;20200;-52
2024/01/20 02:55:18;;;;;;;0.10;0.10;;;;;;;-3.38;100.00;100321.91;5054314;28;20191;-51
2024/01/20 02:58:07;;;;;;;0.10;0.10;;;;;;;-3.44;100.00;100318.41;5054275;28;20193;-51
2024/01/20 03:00:54;;;;;;;0.10;0.10;;;;;;;-3.28;100.00;100325.47;5054238;28;20235;-51
2024/01/20 03:03:40;;;;;;;0.10;0.10;;;;;;;-3.53;100.00;100342.47;5038003;28;20256;-51
2024/01/20 03:06:28;;;;;;;0.00;0.00;;;;;;;-3.61;100.00;100337.19;5034191;28;20204;-51
2024/01/20 03:09:15;;;;;;;0.00;0.00;;;;;;;-3.37;100.00;100333.16;5034130;28;20568;-52
2024/01/20 03:12:02;;;;;;;0.00;0.00;;;;;;;-3.37;100.00;100334.03;5034693;28;20690;-51
2024/01/20 03:14:50;;;;;;;0.00;0.00;;;;;;;-3.56;100.00;100330.34;5050929;28;20220;-51
2024/01/20 03:17:37;;;;;;;0.10;0.10;;;;;;;-3.38;100.00;100336.56;5034054;28;20200;-51
2024/01/20 03:20:24;;;;;;;0.10;0.10;;;;;;;-3.59;100.00;100345.84;5033540;28;20703;-52
2024/01/20 03:23:11;;;;;;;0.00;0.00;;;;;;;-3.12;100.00;100334.28;5041864;28;20300;-52
2024/01/20 03:25:58;;;;;;;0.00;0.00;;;;;;;-3.07;100.00;100336.06;5037245;28;20212;-52
2024/01/20 03:28:44;;;;;;;0.10;0.10;;;;;;;-3.25;100.00;100326.38;5018764;28;20242;-52
2024/01/20 03:31:33;;;;;;;0.10;0.10;;;;;;;-3.36;100.00;100334.91;5033639;28;20221;-52
2024/01/20 03:34:20;;;;;;;0.10;0.10;;;;;;;-3.55;100.00;100346.75;5013874;28;20684;-51
2024/01/20 03:37:07;;;;;;;0.00;0.00;;;;;;;-3.45;100.00;100346.00;5013938;28;20245;-52
2024/01/20 03:39:54;;;;;;;0.10;0.10;;;;;;;-3.30;100.00;100346.16;5013615;28;20286;-52
2024/01/20 03:42:41;;;;;;;0.10;0.10;;;;;;;-3.70;100.00;100347.44;5026054;28;20187;-51
2024/01/20 03:45:27;;;;;;;0.03;0.03;;;;;;;-3.39;100.00;100351.25;5053496;28;20295;-52
2024/01/20 03:48:16;;;;;;;0.10;0.10;;;;;;;-3.17;100.00;100350.66;5053409;28;20196;-52
2024/01/20 03:51:03;;;;;;;0.00;0.00;;;;;;;-3.30;100.00;100350.47;5053303;28;20192;-52
2024/01/20 03:53:50;;;;;;;0.10;0.10;;;;;;;-3.03;100.00;100368.06;5036929;28;20264;-52
2024/01/20 03:56:43;;;;;;;0.00;0.00;;;;;;;-3.17;100.00;100360.16;5031748;28;20236;-51
2024/01/20 03:59:30;;;;;;;0.10;0.10;;;;;;;-3.16;100.00;100359.28;5033107;28;20236;-51
2024/01/20 04:02:16;;;;;;;0.10;0.10;;;;;;;-3.22;100.00;100360.09;5036303;28;20302;-51
2024/01/20 04:05:06;;;;;;;0.10;0.10;;;;;;;-3.31;100.00;100359.97;5052730;28;20192;-52
2024/01/20 04:07:53;;;;;;;0.10;0.10;;;;;;;-3.52;100.00;100363.19;5052723;28;20320;-52
2024/01/20 04:10:40;;;;;;;0.10;0.10;;;;;;;-3.18;100.00;100359.28;5051346;28;20189;-52
2024/01/20 04:13:27;;;;;;;0.10;0.10;;;;;;;-2.90;100.00;100367.31;5039526;28;20216;-52
2024/01/20 04:16:14;;;;;;;0.10;0.10;;;;;;;-2.94;100.00;100366.41;5032788;28;20193;-52
2024/01/20 04:19:01;;;;;;;0.03;0.03;;;;;;;-3.31;100.00;100370.34;5032665;28;20568;-52
2024/01/20 04:21:49;;;;;;;0.10;0.10;;;;;;;-3.19;100.00;100375.66;5032547;28;20216;-52
2024/01/20 04:24:36;;;;;;;0.10;0.10;;;;;;;-3.22;100.00;100372.16;5012848;28;20550;-51
2024/01/20 04:27:23;;;;;;;0.10;0.10;;;;;;;-3.11;100.00;100370.56;5011583;28;20276;-52
2024/01/20 04:30:12;;;;;;;0.10;0.10;;;;;;;-3.01;100.00;100371.53;5012969;28;20484;-52
2024/01/20 04:32:59;;;;;;;0.10;0.10;;;;;;;-3.16;100.00;100361.88;5029924;28;20200;-52
2024/01/20 04:35:46;;;;;;;0.10;0.10;;;;;;;-3.46;100.00;100359.81;5052322;28;20200;-52
2024/01/20 04:38:34;;;;;;;0.00;0.00;;;;;;;-3.41;100.00;100359.84;5052273;28;20196;-52
2024/01/20 04:41:21;;;;;;;0.00;0.00;;;;;;;-3.65;100.00;100363.91;5050704;28;20392;-51
2024/01/20 04:44:08;;;;;;;0.10;0.10;;;;;;;-3.26;100.00;100360.91;5034610;28;20729;-51
2024/01/20 04:46:55;;;;;;;0.10;0.10;;;;;;;-3.06;100.00;100360.25;5033632;28;20212;-52
2024/01/20 04:49:41;;;;;;;0.00;0.00;;;;;;;-3.19;100.00;100367.88;5037011;28;20185;-52
2024/01/20 04:52:28;;;;;;;0.03;0.03;;;;;;;-3.02;100.00;100374.97;5036831;28;20659;-52
2024/01/20 04:55:17;;;;;;;0.10;0.10;;;;;;;-3.48;100.00;100379.63;5052372;28;20214;-51
2024/01/20 04:58:04;;;;;;;0.10;0.10;;;;;;;-3.87;100.00;100395.50;5052814;28;20296;-52
2024/01/20 05:00:51;;;;;;;0.10;0.10;;;;;;;-3.57;100.00;100389.88;5052280;28;20224;-52
2024/01/20 05:03:38;;;;;;;0.00;0.00;;;;;;;-3.61;100.00;100391.56;5024957;28;20237;-52
2024/01/20 05:06:25;;;;;;;0.00;0.00;;;;;;;-3.37;100.00;100387.56;5012855;28;20218;-52
2024/01/20 05:09:12;;;;;;;0.00;0.00;;;;;;;-3.81;100.00;100380.94;5016742;28;20205;-52
2024/01/20 05:12:01;;;;;;;0.10;0.10;;;;;;;-3.67;100.00;100393.19;5022971;28;20185;-52
2024/01/20 05:14:48;;;;;;;0.00;0.00;;;;;;;-3.71;100.00;100388.84;5016451;28;20193;-51
2024/01/20 05:17:34;;;;;;;0.10;0.10;;;;;;;-3.83;100.00;100405.06;5016439;28;20189;-51
2024/01/20 05:20:21;;;;;;;0.00;0.00;;;;;;;-3.95;100.00;100403.19;5016104;28;20762;-52
2024/01/20 05:23:08;;;;;;;0.10;0.10;;;;;;;-3.82;100.00;100396.44;5025345;28;20196;-52
2024/01/20 05:25:55;;;;;;;0.10;0.10;;;;;;;-4.11;100.00;100404.66;5034162;28;20734;-51
2024/01/20 05:28:43;;;;;;;0.03;0.03;;;;;;;-4.22;100.00;100403.63;5035934;28;20200;-51
2024/01/20 05:31:31;;;;;;;0.10;0.10;;;;;;;-3.99;100.00;100397.91;5035861;28;20217;-52
2024/01/20 05:34:19;;;;;;;0.07;0.07;;;;;;;-3.69;100.00;100419.06;5021386;28;20206;-51
2024/01/20 05:37:05;;;;;;;0.10;0.10;;;;;;;-3.75;100.00;100419.00;5015844;28;20208;-51
2024/01/20 05:39:52;;;;;;;0.10;0.10;;;;;;;-3.70;100.00;100425.09;5016024;28;20237;-51
2024/01/20 05:42:39;;;;;;;0.10;0.10;;;;;;;-3.53;100.00;100423.59;5024405;28;20207;-51
2024/01/20 05:45:28;;;;;;;0.10;0.10;;;;;;;-3.51;100.00;100433.97;5055624;28;20196;-51
2024/01/20 05:48:14;;;;;;;0.10;0.10;;;;;;;-3.72;100.00;100431.09;5055547;28;20196;-52
2024/01/20 05:51:01;;;;;;;0.10;0.10;;;;;;;-3.80;100.00;100433.56;5055510;28;20235;-51
2024/01/20 05:53:48;;;;;;;0.10;0.10;;;;;;;-3.64;100.00;100430.34;5026997;28;20198;-51
2024/01/20 05:56:35;;;;;;;0.07;0.07;;;;;;;-4.13;100.00;100433.94;5014497;28;20201;-52
2024/01/20 05:59:22;;;;;;;0.10;0.10;;;;;;;-4.04;100.00;100432.38;5015638;28;20189;-52
2024/01/20 06:02:10;;;;;;;0.00;0.00;;;;;;;-4.04;100.00;100439.25;5018150;28;20225;-51
2024/01/20 06:04:56;;;;;;;0.10;0.10;;;;;;;-3.57;100.00;100450.31;5055310;28;20275;-51
2024/01/20 06:07:44;;;;;;;0.07;0.07;;;;;;;-4.17;100.00;100439.91;5055184;28;20271;-51
2024/01/20 06:10:30;;;;;;;0.10;0.10;;;;;;;-4.07;100.00;100437.47;5053733;28;20192;-51
2024/01/20 06:13:17;;;;;;;0.10;0.10;;;;;;;-3.72;100.00;100449.22;5045430;28;20291;-51
2024/01/20 06:16:05;;;;;;;0.00;0.00;;;;;;;-4.21;100.00;100453.63;5035129;28;20260;-51
2024/01/20 06:18:54;;;;;;;0.10;0.10;;;;;;;-3.88;100.00;100458.47;5034544;28;20236;-52
2024/01/20 06:21:41;;;;;;;0.00;0.00;;;;;;;-3.78;100.00;100449.97;5034907;28;20228;-52
2024/01/20 06:24:28;;;;;;;0.10;0.10;;;;;;;-3.32;100.00;100473.94;5054115;28;20729;-52
2024/01/20 06:27:15;;;;;;;0.10;0.10;;;;;;;-3.57;100.00;100470.13;5053538;28;20187;-52
2024/01/20 06:30:03;;;;;;;0.10;0.10;;;;;;;-3.74;100.00;100482.84;5054894;28;20274;-51
2024/01/20 06:32:50;;;;;;;0.10;0.10;;;;;;;-3.58;100.00;100486.50;5049118;28;20189;-51
2024/01/20 06:35:38;;;;;;;0.10;0.10;;;;;;;-3.33;100.00;100490.31;5034787;28;20324;-52
2024/01/20 06:38:26;;;;;;;0.00;0.00;;;;;;;-3.24;100.00;100491.31;5034724;28;20734;-52
2024/01/20 06:41:13;;;;;;;0.00;0.00;;;;;;;-3.11;100.00;100483.69;5033263;28;20229;-52
2024/01/20 06:44:00;;;;;;;0.10;0.10;;;;;;;-3.08;100.00;100478.56;5049623;28;20203;-52
2024/01/20 06:46:48;;;;;;;0.00;0.00;;;;;;;-3.17;100.00;100482.78;5054631;28;20196;-52
2024/01/20 06:49:35;;;;;;;0.07;0.07;;;;;;;-3.57;100.00;100490.84;5054407;28;20272;-51
2024/01/20 06:52:23;;;;;;;0.10;0.10;;;;;;;-3.35;100.00;100484.25;5052888;28;20188;-52
2024/01/20 06:55:10;;;;;;;0.10;0.10;;;;;;;-3.33;100.00;100493.78;5034408;28;20193;-52
2024/01/20 06:57:57;;;;;;;0.03;0.03;;;;;;;-3.82;100.00;100493.06;5034430;28;20204;-52
2024/01/20 07:00:43;;;;;;;0.00;0.00;;;;;;;-3.77;100.00;100506.06;5034340;28;20196;-52
2024/01/20 07:03:31;;;;;;;0.10;0.10;;;;;;;-3.87;100.00;100494.72;5044496;28;20648;-52
2024/01/20 07:06:22;;;;;;;0.10;0.10;;;;;;;-3.97;100.00;100489.38;5054195;28;20271;-52
2024/01/20 07:09:10;;;;;;;0.10;0.10;;;;;;;-4.21;100.00;100501.06;5054065;28;20658;-51
2024/01/20 07:11:57;;;;;;;0.10;0.10;;;;;;;-4.16;100.00;100509.75;5052735;28;20195;-52
2024/01/20 07:14:44;;;;;;;0.00;0.00;;;;;;;-4.12;100.00;100508.97;5014374;28;20680;-51
2024/01/20 07:17:31;;;;;;;0.10;0.10;;;;;;;-3.78;100.00;100504.34;5025320;28;20195;-51
2024/01/20 07:20:19;;;;;;;0.10;0.10;;;;;;;-3.81;100.00;100505.16;5053844;28;20197;-51
2024/01/20 07:23:05;;;;;;;0.10;0.10;;;;;;;-4.10;100.00;100507.28;5048541;28;20200;-51
2024/01/20 07:25:53;;;;;;;0.00;0.00;;;;;;;-3.95;100.00;100498.06;5012879;28;20202;-51
2024/01/20 07:28:41;;;;;;;0.10;0.10;;;;;;;-3.98;100.00;100511.78;5027713;28;20320;-51
2024/01/20 07:31:28;;;;;;;0.10;0.10;;;;;;;-3.86;100.00;100516.28;5033209;28;20239;-52
2024/01/20 07:34:14;;;;;;;0.00;0.00;;;;;;;-3.49;100.00;100533.25;5049946;28;20200;-51
2024/01/20 07:37:02;;;;;;;0.00;0.00;;;;;;;-3.59;100.00;100541.72;5053538;28;20208;-52
2024/01/20 07:39:48;;;;;;;0.10;0.10;;;;;;;-3.13;100.00;100543.28;5053467;28;20230;-51
2024/01/20 07:42:37;;;;;;;0.10;0.10;;;;;;;-3.29;100.00;100556.84;5049193;28;20240;-51
2024/01/20 07:45:26;;;;;;;0.00;0.00;;;;;;;-3.27;100.00;100556.06;5018502;28;20193;-51
2024/01/20 07:48:14;;;;;;;0.00;0.00;;;;;;;-3.75;100.00;100545.81;5033450;28;20193;-52
2024/01/20 07:51:02;;;;;;;0.10;0.10;;;;;;;-3.47;100.00;100553.16;5033284;28;20324;-51
2024/01/20 07:53:49;;;;;;;0.10;0.10;;;;;;;-3.46;100.00;100562.69;5018269;28;20204;-52
2024/01/20 07:56:36;;;;;;;0.00;0.00;;;;;;;-3.35;100.00;100567.16;5031867;28;20240;-50
2024/01/20 07:59:25;;;;;;;0.00;0.00;;;;;;;-3.48;100.00;100556.56;5033185;28;20197;-51
2024/01/20 08:02:13;;;;;;;0.10;0.10;;;;;;;-3.52;100.00;100569.47;5032959;28;20239;-52
2024/01/20 08:05:00;;;;;;;0.10;0.10;;;;;;;-3.68;100.00;100573.53;5013343;28;20209;-51
2024/01/20 08:07:47;;;;;;;0.10;0.10;;;;;;;-3.52;100.00;100570.34;5010458;28;20227;-51
2024/01/20 08:10:34;;;;;;;0.10;0.10;;;;;;;-3.78;100.00;100569.91;5011462;28;20233;-52
2024/01/20 08:13:21;;;;;;;0.10;0.10;;;;;;;-3.72;100.00;100589.00;5028948;28;20247;-52
2024/01/20 08:16:10;;;;;;;0.00;0.00;;;;;;;-3.91;100.00;100582.63;5051986;28;20200;-52
2024/01/20 08:18:57;;;;;;;0.00;0.00;;;;;;;-3.91;100.00;100586.09;5052178;28;20196;-51
2024/01/20 08:21:44;;;;;;;0.10;0.10;;;;;;;-3.67;100.00;100592.50;5051813;28;20239;-51
2024/01/20 08:24:31;;;;;;;0.00;0.00;;;;;;;-3.72;100.00;100591.59;5034048;28;20219;-51
2024/01/20 08:27:19;;;;;;;0.10;0.10;;;;;;;-3.83;100.00;100588.81;5031086;28;20205;-51
2024/01/20 08:30:07;;;;;;;0.00;0.00;;;;;;;-3.83;100.00;100594.88;5031596;28;20193;-51
2024/01/20 08:32:57;;;;;;;0.10;0.10;;;;;;;-3.74;100.00;100601.91;5036472;28;20200;-52
2024/01/20 08:35:49;;;;;;;0.10;0.10;;;;;;;-3.58;100.00;100597.84;5051948;28;20323;-51
2024/01/20 08:38:36;;;;;;;0.07;0.07;;;;;;;-3.63;100.00;100615.03;5051437;28;20219;-52
2024/01/20 08:41:23;;;;;;;0.10;0.10;;;;;;;-3.76;100.00;100599.31;5052060;28;20196;-51
2024/01/20 08:44:11;;;;;;;0.10;0.10;;;;;;;-3.49;100.00;100600.59;5041351;28;20328;-51
2024/01/20 08:46:59;;;;;;;0.00;0.00;;;;;;;-3.11;100.00;100606.34;5020704;28;20240;-51
2024/01/20 08:49:51;;;;;;;0.00;0.00;;;;;;;-2.80;100.00;100609.38;5036051;28;20193;-52
2024/01/20 08:52:39;;;;;;;0.10;0.10;;;;;;;-3.06;100.00;100606.44;5037538;28;20189;-52
2024/01/20 08:55:27;;;;;;;0.00;0.00;;;;;;;-2.94;100.00;100607.47;5054534;28;20200;-52
2024/01/20 08:58:14;;;;;;;0.00;0.00;;;;;;;-3.12;100.00;100603.75;5055930;28;20234;-51
2024/01/20 09:01:01;;;;;;;0.10;0.10;;;;;;;-2.69;100.00;100618.19;5055664;28;20196;-52
2024/01/20 09:03:49;;;;;;;0.10;0.10;;;;;;;-2.67;100.00;100611.28;5032551;28;20224;-52
2024/01/20 09:06:37;;;;;;;0.00;0.00;;;;;;;-3.31;100.00;100612.94;5015898;28;20205;-51
2024/01/20 09:09:25;;;;;;;0.00;0.00;;;;;;;-2.85;100.00;100616.22;5015818;28;20190;-52
2024/01/20 09:12:14;;;;;;;0.00;0.00;;;;;;;-3.10;100.00;100617.59;5014201;28;20198;-51
2024/01/20 09:15:06;;;;;;;0.10;0.10;;;;;;;-2.91;100.00;100611.81;5001762;28;20210;-51
2024/01/20 09:17:54;;;;;;;0.10;0.10;;;;;;;-3.00;100.00;100614.28;5018057;28;20217;-51
2024/01/20 09:20:42;;;;;;;0.00;0.00;;;;;;;-2.83;100.00;100612.78;5015622;28;20201;-51
2024/01/20 09:23:32;;;;;;;0.10;0.10;;;;;;;-2.88;100.00;100610.16;5023239;28;20329;-52
2024/01/20 09:26:19;;;;;;;0.00;0.00;;;;;;;-3.33;100.00;100618.13;5042426;28;20216;-51
2024/01/20 09:29:06;;;;;;;0.10;0.10;;;;;;;-3.27;100.00;100618.22;5054999;28;20196;-52
2024/01/20 09:31:53;;;;;;;0.10;0.10;;;;;;;-3.32;100.00;100627.63;5055203;28;20191;-52
2024/01/20 09:34:40;;;;;;;0.10;0.10;;;;;;;-2.96;100.00;100619.53;5018373;28;20791;-51
2024/01/20 09:37:28;;;;;;;0.10;0.10;;;;;;;-3.05;100.00;100609.03;5018050;28;20192;-52
2024/01/20 09:40:16;;;;;;;0.10;0.10;;;;;;;-2.94;100.00;100617.84;5034851;28;20240;-52
2024/01/20 09:43:05;;;;;;;0.00;0.00;;;;;;;-3.05;100.00;100616.81;5033991;28;20892;-51
2024/01/20 09:45:53;;;;;;;0.10;0.10;;;;;;;-2.74;100.00;100625.00;5033335;28;20244;-51
2024/01/20 09:48:42;;;;;;;0.10;0.10;;;;;;;-2.80;100.00;100627.50;5033818;28;20347;-52
2024/01/20 09:51:31;;;;;;;0.10;0.10;;;;;;;-2.74;100.00;100627.59;5034168;28;20668;-51
2024/01/20 09:54:20;;;;;;;0.10;0.10;;;;;;;-2.73;100.00;100624.16;5048605;28;20271;-51
2024/01/20 09:57:11;;;;;;;0.10;0.10;;;;;;;-3.11;100.00;100621.91;5053018;28;20200;-51
2024/01/20 10:00:04;;;;;;;0.10;0.10;;;;;;;-3.06;100.00;100629.75;5054105;28;20188;-52
2024/01/20 10:02:57;;;;;;;0.00;0.00;;;;;;;-2.53;100.00;100635.66;5047324;28;20276;-51
2024/01/20 10:05:44;;;;;;;0.10;0.10;;;;;;;-2.46;100.00;100634.88;5014317;28;20201;-51
2024/01/20 10:08:32;;;;;;;0.00;0.00;;;;;;;-2.49;100.00;100623.63;5015596;28;20206;-51
2024/01/20 10:11:23;;;;;;;0.10;0.10;;;;;;;-2.80;100.00;100615.41;5014071;28;20192;-51
2024/01/20 10:14:12;;;;;;;0.10;0.10;;;;;;;-2.99;100.00;100621.19;5041730;28;20272;-51
2024/01/20 10:16:59;;;;;;;0.10;0.10;;;;;;;-2.94;100.00;100619.56;5055288;28;20192;-51
2024/01/20 10:19:46;;;;;;;0.10;0.10;;;;;;;-2.87;100.00;100621.38;5055004;28;20284;-51
2024/01/20 10:22:33;;;;;;;0.00;0.00;;;;;;;-2.88;100.00;100619.66;5054892;28;20212;-51
2024/01/20 10:25:20;;;;;;;0.10;0.10;;;;;;;-2.41;100.00;100619.41;4999828;28;20201;-52
2024/01/20 10:28:08;;;;;;;0.03;0.03;;;;;;;-2.28;100.00;100610.03;5015230;28;20190;-51
2024/01/20 10:30:56;;;;;;;0.00;0.00;;;;;;;-1.97;100.00;100619.88;5015249;28;20321;-52
2024/01/20 10:33:43;;;;;;;0.10;0.10;;;;;;;-2.17;100.00;100616.19;5024280;28;20675;-52
2024/01/20 10:36:31;;;;;;;0.10;0.10;;;;;;;-2.71;100.00;100617.25;5034765;28;20196;-51
2024/01/20 10:39:19;;;;;;;0.10;0.10;;;;;;;-2.66;100.00;100613.91;5034765;28;20200;-52
2024/01/20 10:42:09;;;;;;;0.10;0.10;;;;;;;-2.26;100.00;100611.78;5018405;28;20192;-51
2024/01/20 10:45:03;;;;;;;0.10;0.10;;;;;;;-2.64;100.00;100613.91;5053821;28;20208;-51
2024/01/20 10:48:08;;;;;;;0.10;0.10;;;;;;;-2.69;100.00;100613.00;5054341;28;20677;-52
2024/01/20 10:50:59;;;;;;;0.03;0.03;;;;;;;-2.78;100.00;100618.94;5054445;28;20208;-51
2024/01/20 10:53:49;;;;;;;0.00;0.00;;;;;;;-2.52;100.00;100615.78;5035332;28;20193;-52
2024/01/20 10:56:37;;;;;;;0.00;0.00;;;;;;;-2.43;100.00;100608.97;5013019;28;20426;-52
2024/01/20 10:59:26;;;;;;;0.10;0.10;;;;;;;-2.70;100.00;100606.03;5014490;28;20417;-51
2024/01/20 11:02:14;;;;;;;0.00;0.00;;;;;;;-2.25;100.00;100605.72;5017813;28;20236;-51
2024/01/20 11:05:03;;;;;;;0.10;0.10;;;;;;;-2.37;100.00;100596.09;5049944;28;20262;-52
2024/01/20 11:08:01;;;;;;;0.10;0.10;;;;;;;-1.82;100.00;100590.59;5053147;28;20197;-51
2024/01/20 11:10:52;;;;;;;0.07;0.07;;;;;;;-1.99;100.00;100592.16;5051780;28;20195;-52
2024/01/20 11:13:40;;;;;;;0.10;0.10;;;;;;;-1.93;100.00;100587.00;5044662;28;20193;-52
2024/01/20 11:16:32;;;;;;;0.10;0.10;;;;;;;-2.10;100.00;100579.94;5033359;28;20255;-52
2024/01/20 11:19:19;;;;;;;0.10;0.10;;;;;;;-2.28;100.00;100578.88;5032320;28;20229;-52
2024/01/20 11:22:30;;;;;;;0.03;0.03;;;;;;;-2.15;100.00;100579.00;5032887;28;20201;-52
2024/01/20 11:25:19;;;;;;;0.00;0.00;;;;;;;-2.00;100.00;100578.31;5012386;28;20430;-52
2024/01/20 11:28:07;;;;;;;0.00;0.00;;;;;;;-2.00;100.00;100586.09;5030050;28;20201;-52
2024/01/20 11:30:55;;;;;;;0.10;0.10;;;;;;;-2.24;100.00;100591.03;5040525;28;20296;-51
2024/01/20 11:33:43;;;;;;;0.10;0.10;;;;;;;-2.38;100.00;100603.84;5043402;28;20271;-51
2024/01/20 11:36:32;;;;;;;0.10;0.10;;;;;;;-2.22;100.00;100595.41;5032995;28;20287;-51
2024/01/20 11:39:22;;;;;;;0.10;0.10;;;;;;;-2.34;100.00;100600.44;5032331;28;20196;-51
2024/01/20 11:42:11;;;;;;;0.00;0.00;;;;;;;-2.18;100.00;100594.56;5030427;28;20220;-52
2024/01/20 11:44:58;;;;;;;0.10;0.10;;;;;;;-2.19;100.00;100586.78;5050695;28;20561;-51
2024/01/20 11:47:45;;;;;;;0.10;0.10;;;;;;;-1.97;100.00;100599.09;5042705;28;20201;-51
2024/01/20 11:50:34;;;;;;;0.03;0.03;;;;;;;-2.34;100.00;100606.50;5029105;28;20291;-51
2024/01/20 11:53:23;;;;;;;0.10;0.10;;;;;;;-2.66;100.00;100608.69;5034498;28;20231;-52
2024/01/20 11:56:11;;;;;;;0.10;0.10;;;;;;;-2.47;100.00;100601.16;5047429;28;20222;-52
2024/01/20 11:58:58;;;;;;;0.07;0.07;;;;;;;-1.91;100.00;100604.38;5049991;28;20203;-51
2024/01/20 12:01:46;;;;;;;0.10;0.10;;;;;;;-2.07;100.00;100603.34;5048977;28;20204;-52
2024/01/20 12:04:35;;;;;;;0.03;0.03;;;;;;;-2.40;100.00;100597.78;5013226;28;20283;-52
2024/01/20 12:07:23;;;;;;;0.00;0.00;;;;;;;-2.07;100.00;100595.53;5008690;28;20213;-51
2024/01/20 12:10:11;;;;;;;0.10;0.10;;;;;;;-1.97;100.00;100586.13;5007923;28;20204;-52
2024/01/20 12:13:02;;;;;;;0.10;0.10;;;;;;;-1.81;100.00;100579.34;5010408;28;20213;-52
2024/01/20 12:15:51;;;;;;;0.00;0.00;;;;;;;-1.82;100.00;100583.69;5032663;28;20201;-52
2024/01/20 12:18:38;;;;;;;0.00;0.00;;;;;;;-1.75;100.00;100588.06;5033012;28;20268;-51
2024/01/20 12:21:27;;;;;;;0.10;0.10;;;;;;;-1.88;100.00;100585.34;5031836;28;20200;-52
2024/01/20 12:24:15;;;;;;;0.00;0.00;;;;;;;-2.31;100.00;100577.13;5020851;28;20216;-52
2024/01/20 12:27:04;;;;;;;0.00;0.00;;;;;;;-2.11;100.00;100565.25;5011873;28;20198;-51
2024/01/20 12:29:54;;;;;;;0.00;0.00;;;;;;;-1.98;100.00;100560.16;5013139;28;20401;-52
2024/01/20 12:32:41;;;;;;;0.07;0.07;;;;;;;-2.01;100.00;100558.41;5013174;28;20202;-51
2024/01/20 12:35:28;;;;;;;0.00;0.00;;;;;;;-2.08;100.00;100557.47;5005894;28;20256;-52
2024/01/20 12:38:15;;;;;;;0.00;0.00;;;;;;;-2.05;100.00;100556.63;5011610;28;20197;-52
2024/01/20 12:41:02;;;;;;;0.00;0.00;;;;;;;-2.10;100.00;100547.94;5010088;28;20205;-52
2024/01/20 12:43:49;;;;;;;0.00;0.00;;;;;;;-2.05;100.00;100538.44;5018110;28;20213;-52
2024/01/20 12:46:38;;;;;;;0.10;0.10;;;;;;;-1.66;100.00;100542.25;5028226;28;20695;-52
2024/01/20 12:49:26;;;;;;;0.10;0.10;;;;;;;-2.38;100.00;100547.66;5031304;28;20209;-52
2024/01/20 12:52:13;;;;;;;0.10;0.10;;;;;;;-2.54;100.00;100545.72;5031246;28;20200;-52